createdAt,value
2017-09-12T00:00:36.126Z,992.94
2017-09-12T00:01:36.105Z,992.93
2017-09-12T00:02:36.085Z,992.97
2017-09-12T00:03:36.061Z,992.92
2017-09-12T00:04:36.039Z,993.01
2017-09-12T00:05:36.018Z,992.97
2017-09-12T00:06:35.998Z,992.95
2017-09-12T00:07:35.975Z,992.92
2017-09-12T00:08:35.957Z,992.96
2017-09-12T00:09:35.931Z,992.89
2017-09-12T00:10:35.910Z,992.89
2017-09-12T00:11:35.889Z,992.91
2017-09-12T00:12:35.869Z,992.93
2017-09-12T00:13:35.851Z,992.99
2017-09-12T00:14:35.825Z,992.93
2017-09-12T00:15:35.802Z,992.95
2017-09-12T00:16:35.781Z,992.97
2017-09-12T00:17:35.759Z,992.93
2017-09-12T00:18:35.738Z,992.99
2017-09-12T00:19:35.718Z,992.94
2017-09-12T00:20:35.700Z,992.91
2017-09-12T00:21:35.672Z,992.94
2017-09-12T00:22:35.651Z,992.99
2017-09-12T00:23:35.632Z,992.92
2017-09-12T00:24:35.607Z,992.93
2017-09-12T00:25:35.586Z,993.01
2017-09-12T00:26:35.568Z,992.95
2017-09-12T00:27:35.543Z,992.93
2017-09-12T00:28:35.520Z,993.01
2017-09-12T00:29:35.498Z,992.98
2017-09-12T00:30:35.477Z,993.04
2017-09-12T00:31:35.456Z,992.99
2017-09-12T00:32:35.434Z,993.04
2017-09-12T00:33:35.451Z,993.08
2017-09-12T00:34:35.397Z,993.08
2017-09-12T00:35:35.371Z,993.01
2017-09-12T00:36:35.348Z,993.05
2017-09-12T00:37:35.327Z,993.1
2017-09-12T00:38:35.306Z,993.09
2017-09-12T00:39:35.281Z,993.1
2017-09-12T00:40:35.263Z,993.05
2017-09-12T00:41:35.240Z,993.11
2017-09-12T00:42:35.219Z,993.12
2017-09-12T00:43:35.198Z,993.1
2017-09-12T00:44:35.177Z,993.17
2017-09-12T00:45:35.155Z,993.1
2017-09-12T00:46:35.132Z,993.1
2017-09-12T00:47:35.110Z,993.17
2017-09-12T00:48:35.089Z,993.12
2017-09-12T00:49:35.068Z,993.19
2017-09-12T00:50:35.045Z,993.19
2017-09-12T00:51:35.028Z,993.2
2017-09-12T00:52:35.006Z,993.16
2017-09-12T00:53:34.979Z,993.14
2017-09-12T00:54:34.958Z,993.17
2017-09-12T00:55:34.939Z,993.2
2017-09-12T00:56:34.916Z,993.22
2017-09-12T00:57:34.891Z,993.16
2017-09-12T00:58:34.871Z,993.19
2017-09-12T00:59:34.850Z,993.22
2017-09-12T01:00:34.829Z,993.14
2017-09-12T01:01:34.808Z,993.2
2017-09-12T01:02:34.786Z,993.17
2017-09-12T01:03:34.765Z,993.19
2017-09-12T01:04:34.745Z,993.23
2017-09-12T01:05:34.721Z,993.19
2017-09-12T01:06:34.699Z,993.23
2017-09-12T01:07:34.678Z,993.24
2017-09-12T01:08:34.657Z,993.26
2017-09-12T01:09:34.634Z,993.24
2017-09-12T01:10:34.612Z,993.3
2017-09-12T01:11:34.592Z,993.31
2017-09-12T01:12:34.570Z,993.41
2017-09-12T01:13:34.548Z,993.37
2017-09-12T01:14:34.528Z,993.37
2017-09-12T01:15:34.507Z,993.43
2017-09-12T01:16:34.486Z,993.39
2017-09-12T01:17:34.464Z,993.5
2017-09-12T01:18:34.445Z,993.51
2017-09-12T01:19:34.417Z,993.51
2017-09-12T01:20:34.397Z,993.52
2017-09-12T01:21:34.375Z,993.5
2017-09-12T01:22:34.353Z,993.51
2017-09-12T01:23:34.333Z,993.5
2017-09-12T01:24:34.310Z,993.45
2017-09-12T01:25:34.289Z,993.47
2017-09-12T01:26:34.267Z,993.48
2017-09-12T01:27:34.246Z,993.43
2017-09-12T01:28:34.225Z,993.44
2017-09-12T01:29:34.204Z,993.43
2017-09-12T01:30:34.181Z,993.42
2017-09-12T01:31:34.159Z,993.45
2017-09-12T01:32:34.139Z,993.34
2017-09-12T01:33:34.119Z,993.44
2017-09-12T01:34:34.097Z,993.42
2017-09-12T01:35:34.073Z,993.47
2017-09-12T01:36:34.055Z,993.43
2017-09-12T01:37:34.030Z,993.46
2017-09-12T01:38:34.009Z,993.48
2017-09-12T01:39:33.990Z,993.49
2017-09-12T01:40:33.967Z,993.5
2017-09-12T01:41:33.945Z,993.51
2017-09-12T01:42:33.936Z,993.57
2017-09-12T01:43:33.905Z,993.52
2017-09-12T01:44:33.879Z,993.52
2017-09-12T01:45:33.859Z,993.56
2017-09-12T01:46:33.837Z,993.54
2017-09-12T01:47:33.814Z,993.55
2017-09-12T01:48:33.798Z,993.61
2017-09-12T01:49:33.771Z,993.57
2017-09-12T01:50:33.754Z,993.57
2017-09-12T01:51:33.729Z,993.51
2017-09-12T01:52:33.709Z,993.63
2017-09-12T01:53:33.684Z,993.57
2017-09-12T01:54:33.665Z,993.57
2017-09-12T01:55:33.641Z,993.58
2017-09-12T01:56:33.619Z,993.61
2017-09-12T01:57:33.605Z,993.6
2017-09-12T01:58:33.581Z,993.6
2017-09-12T01:59:33.555Z,993.6
2017-09-12T02:00:33.534Z,993.6
2017-09-12T02:01:33.514Z,993.63
2017-09-12T02:02:33.492Z,993.59
2017-09-12T02:03:33.473Z,993.6
2017-09-12T02:04:33.454Z,993.59
2017-09-12T02:05:33.426Z,993.63
2017-09-12T02:06:33.404Z,993.62
2017-09-12T02:07:33.385Z,993.69
2017-09-12T02:08:33.361Z,993.63
2017-09-12T02:09:33.339Z,993.64
2017-09-12T02:10:33.318Z,993.68
2017-09-12T02:11:33.296Z,993.69
2017-09-12T02:12:33.275Z,993.63
2017-09-12T02:13:33.253Z,993.65
2017-09-12T02:14:33.233Z,993.64
2017-09-12T02:15:33.211Z,993.67
2017-09-12T02:16:33.189Z,993.67
2017-09-12T02:17:33.165Z,993.68
2017-09-12T02:18:33.144Z,993.71
2017-09-12T02:19:33.121Z,993.7
2017-09-12T02:20:33.103Z,993.68
2017-09-12T02:21:33.080Z,993.73
2017-09-12T02:22:33.067Z,993.74
2017-09-12T02:23:33.038Z,993.7
2017-09-12T02:24:33.016Z,993.74
2017-09-12T02:25:32.993Z,993.71
2017-09-12T02:26:32.972Z,993.69
2017-09-12T02:27:32.955Z,993.7
2017-09-12T02:28:32.928Z,993.69
2017-09-12T02:29:32.907Z,993.72
2017-09-12T02:30:32.885Z,993.68
2017-09-12T02:31:32.864Z,993.68
2017-09-12T02:32:32.840Z,993.65
2017-09-12T02:33:32.820Z,993.73
2017-09-12T02:34:32.797Z,993.72
2017-09-12T02:35:32.778Z,993.66
2017-09-12T02:36:32.757Z,993.67
2017-09-12T02:37:32.735Z,993.65
2017-09-12T02:38:32.711Z,993.67
2017-09-12T02:39:32.690Z,993.67
2017-09-12T02:40:32.669Z,993.78
2017-09-12T02:41:32.648Z,993.71
2017-09-12T02:42:32.627Z,993.7
2017-09-12T02:43:32.604Z,993.7
2017-09-12T02:44:32.582Z,993.73
2017-09-12T02:45:32.561Z,993.67
2017-09-12T02:46:32.540Z,993.71
2017-09-12T02:47:32.516Z,993.73
2017-09-12T02:48:32.497Z,993.77
2017-09-12T02:49:32.474Z,993.77
2017-09-12T02:50:32.449Z,993.73
2017-09-12T02:51:32.429Z,993.75
2017-09-12T02:52:32.414Z,993.75
2017-09-12T02:53:32.403Z,993.77
2017-09-12T02:54:32.367Z,993.76
2017-09-12T02:55:32.345Z,993.76
2017-09-12T02:56:32.323Z,993.81
2017-09-12T02:57:32.302Z,993.85
2017-09-12T02:58:32.279Z,993.8
2017-09-12T02:59:32.257Z,993.79
2017-09-12T03:00:32.236Z,993.74
2017-09-12T03:01:32.215Z,993.73
2017-09-12T03:02:32.194Z,993.73
2017-09-12T03:03:32.171Z,993.84
2017-09-12T03:04:32.150Z,993.75
2017-09-12T03:05:32.129Z,993.73
2017-09-12T03:06:32.109Z,993.73
2017-09-12T03:07:32.087Z,993.76
2017-09-12T03:08:32.065Z,993.79
2017-09-12T03:09:32.049Z,993.76
2017-09-12T03:10:32.021Z,993.76
2017-09-12T03:11:32.000Z,993.79
2017-09-12T03:12:31.977Z,993.73
2017-09-12T03:13:31.959Z,993.82
2017-09-12T03:14:31.936Z,993.77
2017-09-12T03:15:31.914Z,993.8
2017-09-12T03:16:31.895Z,993.81
2017-09-12T03:17:31.874Z,993.77
2017-09-12T03:18:31.853Z,993.78
2017-09-12T03:19:31.826Z,993.85
2017-09-12T03:20:31.811Z,993.87
2017-09-12T03:21:31.782Z,993.82
2017-09-12T03:22:31.766Z,993.86
2017-09-12T03:23:31.745Z,993.88
2017-09-12T03:24:31.718Z,993.9
2017-09-12T03:25:31.698Z,993.88
2017-09-12T03:26:31.678Z,993.96
2017-09-12T03:27:31.656Z,993.92
2017-09-12T03:28:31.633Z,993.93
2017-09-12T03:29:31.615Z,993.95
2017-09-12T03:30:31.590Z,993.99
2017-09-12T03:31:31.567Z,993.96
2017-09-12T03:32:31.546Z,993.98
2017-09-12T03:33:31.531Z,994.01
2017-09-12T03:34:31.506Z,993.99
2017-09-12T03:35:31.480Z,994.01
2017-09-12T03:36:31.459Z,994.05
2017-09-12T03:37:31.438Z,994.01
2017-09-12T03:38:31.414Z,994
2017-09-12T03:39:31.393Z,994.01
2017-09-12T03:40:31.371Z,994.05
2017-09-12T03:41:31.351Z,994.02
2017-09-12T03:42:31.328Z,994.05
2017-09-12T03:43:31.306Z,994.03
2017-09-12T03:44:31.304Z,994
2017-09-12T03:45:31.266Z,994.06
2017-09-12T03:46:31.243Z,994.05
2017-09-12T03:47:31.221Z,994.04
2017-09-12T03:48:31.201Z,994.11
2017-09-12T03:49:31.177Z,994.08
2017-09-12T03:50:31.156Z,994.09
2017-09-12T03:51:31.135Z,994.12
2017-09-12T03:52:31.111Z,994.07
2017-09-12T03:53:31.091Z,994.15
2017-09-12T03:54:31.069Z,994.16
2017-09-12T03:55:31.048Z,994.14
2017-09-12T03:56:31.025Z,994.17
2017-09-12T03:57:31.002Z,994.22
2017-09-12T03:58:30.982Z,994.24
2017-09-12T03:59:30.961Z,994.3
2017-09-12T04:00:30.938Z,994.27
2017-09-12T04:01:30.918Z,994.3
2017-09-12T04:02:30.895Z,994.3
2017-09-12T04:03:30.872Z,994.34
2017-09-12T04:04:30.853Z,994.31
2017-09-12T04:05:30.830Z,994.3
2017-09-12T04:06:30.809Z,994.3
2017-09-12T04:07:30.785Z,994.33
2017-09-12T04:08:30.766Z,994.31
2017-09-12T04:09:30.744Z,994.33
2017-09-12T04:10:30.722Z,994.32
2017-09-12T04:11:30.699Z,994.38
2017-09-12T04:12:30.677Z,994.35
2017-09-12T04:13:30.650Z,994.36
2017-09-12T04:14:30.642Z,994.37
2017-09-12T04:15:30.614Z,994.39
2017-09-12T04:16:30.590Z,994.39
2017-09-12T04:17:30.568Z,994.38
2017-09-12T04:18:30.549Z,994.44
2017-09-12T04:19:30.527Z,994.48
2017-09-12T04:20:30.509Z,994.49
2017-09-12T04:21:30.482Z,994.5
2017-09-12T04:22:30.463Z,994.52
2017-09-12T04:23:30.437Z,994.54
2017-09-12T04:24:30.419Z,994.5
2017-09-12T04:25:30.393Z,994.47
2017-09-12T04:26:30.371Z,994.51
2017-09-12T04:27:30.359Z,994.54
2017-09-12T04:28:30.330Z,994.48
2017-09-12T04:29:30.314Z,994.49
2017-09-12T04:30:30.284Z,994.57
2017-09-12T04:31:30.264Z,994.56
2017-09-12T04:32:30.243Z,994.53
2017-09-12T04:33:30.221Z,994.57
2017-09-12T04:34:30.198Z,994.49
2017-09-12T04:35:30.177Z,994.53
2017-09-12T04:36:30.156Z,994.48
2017-09-12T04:37:30.133Z,994.47
2017-09-12T04:38:30.110Z,994.49
2017-09-12T04:39:30.091Z,994.5
2017-09-12T04:40:30.067Z,994.52
2017-09-12T04:41:30.047Z,994.51
2017-09-12T04:42:30.024Z,994.5
2017-09-12T04:43:30.004Z,994.49
2017-09-12T04:44:29.982Z,994.52
2017-09-12T04:45:29.964Z,994.48
2017-09-12T04:46:29.939Z,994.48
2017-09-12T04:47:29.917Z,994.46
2017-09-12T04:48:29.894Z,994.47
2017-09-12T04:49:29.874Z,994.52
2017-09-12T04:50:29.853Z,994.55
2017-09-12T04:51:29.832Z,994.51
2017-09-12T04:52:29.811Z,994.52
2017-09-12T04:53:29.787Z,994.45
2017-09-12T04:54:29.765Z,994.53
2017-09-12T04:55:29.744Z,994.55
2017-09-12T04:56:29.720Z,994.58
2017-09-12T04:57:29.700Z,994.63
2017-09-12T04:58:29.677Z,994.71
2017-09-12T04:59:29.656Z,994.68
2017-09-12T05:00:29.637Z,994.72
2017-09-12T05:01:29.614Z,994.75
2017-09-12T05:02:29.590Z,994.77
2017-09-12T05:03:29.569Z,994.79
2017-09-12T05:04:29.545Z,994.87
2017-09-12T05:05:29.525Z,994.89
2017-09-12T05:06:29.505Z,994.89
2017-09-12T05:07:29.481Z,994.86
2017-09-12T05:08:29.459Z,994.94
2017-09-12T05:09:29.438Z,994.92
2017-09-12T05:10:29.418Z,994.97
2017-09-12T05:11:29.397Z,995
2017-09-12T05:12:29.372Z,994.99
2017-09-12T05:13:29.357Z,995.06
2017-09-12T05:14:29.330Z,995.02
2017-09-12T05:15:29.310Z,995
2017-09-12T05:16:29.284Z,995
2017-09-12T05:17:29.264Z,995.05
2017-09-12T05:18:29.243Z,995.05
2017-09-12T05:19:29.225Z,995.03
2017-09-12T05:20:29.198Z,995.08
2017-09-12T05:21:29.177Z,995.07
2017-09-12T05:22:29.156Z,995.12
2017-09-12T05:23:29.131Z,995.15
2017-09-12T05:24:29.110Z,995.2
2017-09-12T05:25:29.089Z,995.14
2017-09-12T05:26:29.067Z,995.21
2017-09-12T05:27:29.046Z,995.16
2017-09-12T05:28:29.022Z,995.23
2017-09-12T05:29:29.001Z,995.2
2017-09-12T05:30:28.982Z,995.27
2017-09-12T05:31:28.962Z,995.25
2017-09-12T05:32:28.935Z,995.32
2017-09-12T05:33:28.915Z,995.29
2017-09-12T05:34:28.893Z,995.36
2017-09-12T05:35:28.872Z,995.39
2017-09-12T05:36:28.850Z,995.37
2017-09-12T05:37:28.830Z,995.39
2017-09-12T05:38:28.806Z,995.4
2017-09-12T05:39:28.787Z,995.4
2017-09-12T05:40:28.764Z,995.39
2017-09-12T05:41:28.741Z,995.42
2017-09-12T05:42:28.719Z,995.43
2017-09-12T05:43:28.697Z,995.43
2017-09-12T05:44:28.677Z,995.5
2017-09-12T05:45:28.656Z,995.46
2017-09-12T05:46:28.632Z,995.49
2017-09-12T05:47:28.613Z,995.48
2017-09-12T05:48:28.590Z,995.52
2017-09-12T05:49:28.567Z,995.48
2017-09-12T05:50:28.547Z,995.5
2017-09-12T05:51:28.525Z,995.57
2017-09-12T05:52:28.503Z,995.6
2017-09-12T05:53:28.481Z,995.6
2017-09-12T05:54:28.459Z,995.58
2017-09-12T05:55:28.438Z,995.58
2017-09-12T05:56:28.416Z,995.64
2017-09-12T05:57:28.393Z,995.64
2017-09-12T05:58:28.373Z,995.6
2017-09-12T05:59:28.350Z,995.65
2017-09-12T06:00:28.328Z,995.7
2017-09-12T06:01:28.306Z,995.67
2017-09-12T06:02:28.286Z,995.65
2017-09-12T06:03:28.260Z,995.73
2017-09-12T06:04:28.239Z,995.69
2017-09-12T06:05:28.221Z,995.72
2017-09-12T06:06:28.198Z,995.72
2017-09-12T06:07:28.177Z,995.76
2017-09-12T06:08:28.156Z,995.71
2017-09-12T06:09:28.135Z,995.71
2017-09-12T06:10:28.114Z,995.75
2017-09-12T06:11:28.095Z,995.72
2017-09-12T06:12:28.071Z,995.79
2017-09-12T06:13:28.048Z,995.78
2017-09-12T06:14:28.027Z,995.78
2017-09-12T06:15:28.005Z,995.78
2017-09-12T06:16:27.982Z,995.79
2017-09-12T06:17:27.997Z,995.82
2017-09-12T06:18:27.945Z,995.81
2017-09-12T06:19:27.919Z,995.89
2017-09-12T06:20:27.899Z,995.86
2017-09-12T06:21:27.876Z,995.87
2017-09-12T06:22:27.856Z,995.9
2017-09-12T06:23:27.834Z,995.88
2017-09-12T06:24:27.816Z,995.88
2017-09-12T06:25:27.796Z,995.86
2017-09-12T06:26:27.770Z,995.88
2017-09-12T06:27:27.749Z,995.87
2017-09-12T06:28:27.728Z,995.92
2017-09-12T06:29:27.706Z,995.95
2017-09-12T06:30:27.685Z,995.94
2017-09-12T06:31:27.668Z,995.97
2017-09-12T06:32:27.643Z,996.02
2017-09-12T06:33:27.623Z,996.02
2017-09-12T06:34:27.598Z,996.02
2017-09-12T06:35:27.579Z,996.04
2017-09-12T06:36:27.564Z,996.01
2017-09-12T06:37:27.534Z,996.08
2017-09-12T06:38:27.514Z,996.08
2017-09-12T06:39:27.497Z,996.14
2017-09-12T06:40:27.470Z,996.09
2017-09-12T06:41:27.451Z,996.09
2017-09-12T06:42:27.427Z,996.12
2017-09-12T06:43:27.407Z,996.09
2017-09-12T06:44:27.386Z,996.15
2017-09-12T06:45:27.368Z,996.16
2017-09-12T06:46:27.344Z,996.18
2017-09-12T06:47:27.324Z,996.21
2017-09-12T06:48:27.300Z,996.16
2017-09-12T06:49:27.279Z,996.22
2017-09-12T06:50:27.257Z,996.2
2017-09-12T06:51:27.236Z,996.25
2017-09-12T06:52:27.217Z,996.21
2017-09-12T06:53:27.222Z,996.24
2017-09-12T06:54:27.175Z,996.25
2017-09-12T06:55:27.153Z,996.27
2017-09-12T06:56:27.130Z,996.28
2017-09-12T06:57:27.107Z,996.33
2017-09-12T06:58:27.088Z,996.31
2017-09-12T06:59:27.068Z,996.35
2017-09-12T07:00:27.044Z,996.34
2017-09-12T07:01:27.023Z,996.41
2017-09-12T07:02:27.001Z,996.34
2017-09-12T07:03:26.979Z,996.36
2017-09-12T07:04:26.958Z,996.38
2017-09-12T07:05:26.937Z,996.33
2017-09-12T07:06:26.919Z,996.36
2017-09-12T07:07:26.894Z,996.37
2017-09-12T07:08:26.873Z,996.34
2017-09-12T07:09:26.852Z,996.43
2017-09-12T07:10:26.840Z,996.38
2017-09-12T07:11:26.813Z,996.35
2017-09-12T07:12:26.790Z,996.38
2017-09-12T07:13:26.772Z,996.43
2017-09-12T07:14:26.748Z,996.44
2017-09-12T07:15:26.729Z,996.43
2017-09-12T07:16:26.705Z,996.44
2017-09-12T07:17:26.684Z,996.45
2017-09-12T07:18:26.664Z,996.51
2017-09-12T07:19:26.643Z,996.52
2017-09-12T07:20:26.622Z,996.52
2017-09-12T07:21:26.601Z,996.55
2017-09-12T07:22:26.584Z,996.54
2017-09-12T07:23:26.560Z,996.59
2017-09-12T07:24:26.569Z,996.57
2017-09-12T07:25:26.517Z,996.6
2017-09-12T07:26:26.499Z,996.61
2017-09-12T07:27:26.476Z,996.62
2017-09-12T07:28:26.457Z,996.65
2017-09-12T07:29:26.436Z,996.59
2017-09-12T07:30:26.414Z,996.6
2017-09-12T07:31:26.395Z,996.66
2017-09-12T07:32:26.374Z,996.65
2017-09-12T07:33:26.353Z,996.71
2017-09-12T07:34:26.331Z,996.68
2017-09-12T07:35:26.309Z,996.73
2017-09-12T07:36:26.291Z,996.74
2017-09-12T07:37:26.272Z,996.76
2017-09-12T07:38:26.249Z,996.79
2017-09-12T07:39:26.227Z,996.83
2017-09-12T07:40:26.206Z,996.87
2017-09-12T07:41:26.187Z,996.88
2017-09-12T07:42:26.176Z,996.91
2017-09-12T07:43:26.150Z,996.86
2017-09-12T07:44:26.126Z,996.92
2017-09-12T07:45:26.106Z,996.91
2017-09-12T07:46:26.085Z,996.93
2017-09-12T07:47:26.063Z,997.02
2017-09-12T07:48:26.046Z,996.97
2017-09-12T07:49:26.029Z,996.97
2017-09-12T07:50:26.002Z,997.03
2017-09-12T07:51:25.983Z,997.04
2017-09-12T07:52:25.967Z,997.11
2017-09-12T07:53:25.942Z,997.09
2017-09-12T07:54:25.923Z,997.12
2017-09-12T07:55:25.902Z,997.11
2017-09-12T07:56:25.882Z,997.17
2017-09-12T07:57:25.862Z,997.18
2017-09-12T07:58:25.842Z,997.17
2017-09-12T07:59:25.821Z,997.14
2017-09-12T08:00:25.800Z,997.22
2017-09-12T08:01:25.780Z,997.18
2017-09-12T08:02:25.764Z,997.26
2017-09-12T08:03:25.738Z,997.26
2017-09-12T08:04:25.720Z,997.31
2017-09-12T08:05:25.702Z,997.37
2017-09-12T08:06:25.678Z,997.31
2017-09-12T08:07:25.657Z,997.32
2017-09-12T08:08:25.636Z,997.37
2017-09-12T08:09:25.617Z,997.34
2017-09-12T08:10:25.595Z,997.4
2017-09-12T08:11:25.575Z,997.35
2017-09-12T08:12:25.558Z,997.38
2017-09-12T08:13:25.538Z,997.42
2017-09-12T08:14:25.519Z,997.41
2017-09-12T08:15:25.497Z,997.49
2017-09-12T08:16:25.486Z,997.51
2017-09-12T08:17:25.464Z,997.52
2017-09-12T08:18:25.445Z,997.51
2017-09-12T08:19:25.425Z,997.55
2017-09-12T08:20:25.407Z,997.52
2017-09-12T08:21:25.394Z,997.61
2017-09-12T08:22:25.371Z,997.56
2017-09-12T08:23:25.350Z,997.56
2017-09-12T08:24:25.334Z,997.59
2017-09-12T08:25:25.318Z,997.61
2017-09-12T08:26:25.301Z,997.62
2017-09-12T08:27:25.281Z,997.59
2017-09-12T08:28:25.264Z,997.6
2017-09-12T08:29:25.247Z,997.58
2017-09-12T08:30:25.227Z,997.61
2017-09-12T08:31:25.210Z,997.63
2017-09-12T08:32:25.196Z,997.71
2017-09-12T08:33:25.179Z,997.75
2017-09-12T08:34:25.159Z,997.73
2017-09-12T08:35:25.148Z,997.78
2017-09-12T08:36:25.124Z,997.78
2017-09-12T08:37:25.104Z,997.73
2017-09-12T08:38:25.087Z,997.79
2017-09-12T08:39:25.073Z,997.8
2017-09-12T08:40:25.054Z,997.7
2017-09-12T08:41:25.057Z,997.76
2017-09-12T08:42:25.019Z,997.8
2017-09-12T08:43:25.004Z,997.76
2017-09-12T08:44:24.986Z,997.7
2017-09-12T08:45:24.967Z,997.82
2017-09-12T08:46:24.948Z,997.81
2017-09-12T08:47:24.932Z,997.77
2017-09-12T08:48:24.913Z,997.83
2017-09-12T08:49:24.897Z,997.91
2017-09-12T08:50:24.881Z,997.82
2017-09-12T08:51:24.864Z,997.89
2017-09-12T08:52:24.846Z,997.87
2017-09-12T08:53:24.828Z,997.87
2017-09-12T08:54:24.810Z,997.84
2017-09-12T08:55:24.794Z,997.85
2017-09-12T08:56:24.776Z,997.81
2017-09-12T08:57:24.760Z,997.82
2017-09-12T08:58:24.743Z,997.88
2017-09-12T08:59:24.729Z,997.85
2017-09-12T09:00:24.712Z,997.81
2017-09-12T09:01:24.695Z,997.89
2017-09-12T09:02:24.679Z,997.88
2017-09-12T09:03:24.665Z,997.94
2017-09-12T09:04:24.653Z,997.85
2017-09-12T09:05:24.736Z,997.9
2017-09-12T09:06:24.624Z,997.91
2017-09-12T09:07:24.605Z,997.89
2017-09-12T09:08:24.590Z,997.9
2017-09-12T09:09:24.577Z,997.89
2017-09-12T09:10:24.565Z,997.87
2017-09-12T09:11:24.554Z,997.89
2017-09-12T09:12:24.538Z,997.9
2017-09-12T09:13:24.525Z,997.92
2017-09-12T09:14:24.510Z,997.84
2017-09-12T09:15:24.500Z,997.93
2017-09-12T09:16:24.488Z,997.94
2017-09-12T09:17:24.470Z,997.97
2017-09-12T09:18:24.459Z,998
2017-09-12T09:19:24.446Z,997.96
2017-09-12T09:20:24.434Z,997.92
2017-09-12T09:21:24.421Z,997.91
2017-09-12T09:22:24.408Z,997.98
2017-09-12T09:23:24.394Z,997.95
2017-09-12T09:24:24.380Z,997.99
2017-09-12T09:25:24.364Z,998
2017-09-12T09:26:24.353Z,998
2017-09-12T09:27:24.343Z,997.99
2017-09-12T09:28:24.331Z,997.93
2017-09-12T09:29:24.317Z,998.01
2017-09-12T09:30:24.301Z,998.06
2017-09-12T09:31:24.289Z,998.01
2017-09-12T09:32:24.282Z,998
2017-09-12T09:33:24.262Z,998.04
2017-09-12T09:34:24.255Z,998.03
2017-09-12T09:35:24.243Z,998.07
2017-09-12T09:36:24.225Z,998.02
2017-09-12T09:37:24.212Z,997.96
2017-09-12T09:38:24.200Z,998.05
2017-09-12T09:39:24.180Z,998.07
2017-09-12T09:40:24.169Z,998.07
2017-09-12T09:41:24.150Z,998
2017-09-12T09:42:24.140Z,998.01
2017-09-12T09:43:24.128Z,998.03
2017-09-12T09:44:24.118Z,998.03
2017-09-12T09:45:24.092Z,998.04
2017-09-12T09:46:24.088Z,998.07
2017-09-12T09:47:24.076Z,998.05
2017-09-12T09:48:24.050Z,998.08
2017-09-12T09:49:24.035Z,998.16
2017-09-12T09:50:24.022Z,998.14
2017-09-12T09:51:24.001Z,998.2
2017-09-12T09:52:23.987Z,998.21
2017-09-12T09:53:23.972Z,998.15
2017-09-12T09:54:23.953Z,998.1
2017-09-12T09:55:23.937Z,998.17
2017-09-12T09:56:23.920Z,998.17
2017-09-12T09:57:23.928Z,998.2
2017-09-12T09:58:23.885Z,998.28
2017-09-12T09:59:23.869Z,998.24
2017-09-12T10:00:23.854Z,998.24
2017-09-12T10:01:23.837Z,998.18
2017-09-12T10:02:23.822Z,998.23
2017-09-12T10:03:23.802Z,998.23
2017-09-12T10:04:23.788Z,998.18
2017-09-12T10:05:23.770Z,998.3
2017-09-12T10:06:23.752Z,998.18
2017-09-12T10:07:23.737Z,998.22
2017-09-12T10:08:23.745Z,998.23
2017-09-12T10:09:23.705Z,998.27
2017-09-12T10:10:23.690Z,998.23
2017-09-12T10:11:23.675Z,998.3
2017-09-12T10:12:23.655Z,998.28
2017-09-12T10:13:23.642Z,998.21
2017-09-12T10:14:23.624Z,998.39
2017-09-12T10:15:23.607Z,998.36
2017-09-12T10:16:23.590Z,998.34
2017-09-12T10:17:23.578Z,998.31
2017-09-12T10:18:23.558Z,998.3
2017-09-12T10:19:23.538Z,998.33
2017-09-12T10:20:23.521Z,998.36
2017-09-12T10:21:23.503Z,998.33
2017-09-12T10:22:23.489Z,998.33
2017-09-12T10:23:23.473Z,998.42
2017-09-12T10:24:23.450Z,998.36
2017-09-12T10:25:23.433Z,998.38
2017-09-12T10:26:23.414Z,998.3
2017-09-12T10:27:23.397Z,998.38
2017-09-12T10:28:23.377Z,998.35
2017-09-12T10:29:23.361Z,998.39
2017-09-12T10:30:23.344Z,998.4
2017-09-12T10:31:23.329Z,998.4
2017-09-12T10:32:23.309Z,998.35
2017-09-12T10:33:23.293Z,998.41
2017-09-12T10:34:23.269Z,998.43
2017-09-12T10:35:23.255Z,998.43
2017-09-12T10:36:23.232Z,998.45
2017-09-12T10:37:23.213Z,998.54
2017-09-12T10:38:23.191Z,998.5
2017-09-12T10:39:23.174Z,998.53
2017-09-12T10:40:23.157Z,998.49
2017-09-12T10:41:23.138Z,998.51
2017-09-12T10:42:23.120Z,998.57
2017-09-12T10:43:23.106Z,998.58
2017-09-12T10:44:23.082Z,998.52
2017-09-12T10:45:23.060Z,998.56
2017-09-12T10:46:23.043Z,998.53
2017-09-12T10:47:23.025Z,998.62
2017-09-12T10:48:23.010Z,998.61
2017-09-12T10:49:22.986Z,998.6
2017-09-12T10:50:22.966Z,998.55
2017-09-12T10:51:22.951Z,998.61
2017-09-12T10:52:22.930Z,998.58
2017-09-12T10:53:22.912Z,998.56
2017-09-12T10:54:22.892Z,998.59
2017-09-12T10:55:22.873Z,998.59
2017-09-12T10:56:22.854Z,998.6
2017-09-12T10:57:22.834Z,998.56
2017-09-12T10:58:22.815Z,998.53
2017-09-12T10:59:22.794Z,998.53
2017-09-12T11:00:22.775Z,998.59
2017-09-12T11:01:22.759Z,998.59
2017-09-12T11:02:22.739Z,998.6
2017-09-12T11:03:22.718Z,998.62
2017-09-12T11:04:22.700Z,998.63
2017-09-12T11:05:22.685Z,998.64
2017-09-12T11:06:22.663Z,998.68
2017-09-12T11:07:22.642Z,998.68
2017-09-12T11:08:22.623Z,998.6
2017-09-12T11:09:22.606Z,998.74
2017-09-12T11:10:22.587Z,998.75
2017-09-12T11:11:22.566Z,998.72
2017-09-12T11:12:22.546Z,998.8
2017-09-12T11:13:22.529Z,998.74
2017-09-12T11:14:22.510Z,998.79
2017-09-12T11:15:22.487Z,998.77
2017-09-12T11:16:22.473Z,998.85
2017-09-12T11:17:22.452Z,998.85
2017-09-12T11:18:22.427Z,998.79
2017-09-12T11:19:22.408Z,998.78
2017-09-12T11:20:22.394Z,998.81
2017-09-12T11:21:22.369Z,998.77
2017-09-12T11:22:22.378Z,998.71
2017-09-12T11:23:22.333Z,998.77
2017-09-12T11:24:22.316Z,998.76
2017-09-12T11:25:22.292Z,998.79
2017-09-12T11:26:22.271Z,998.73
2017-09-12T11:27:22.253Z,998.73
2017-09-12T11:28:22.234Z,998.76
2017-09-12T11:29:22.212Z,998.77
2017-09-12T11:30:22.197Z,998.81
2017-09-12T11:31:22.173Z,998.81
2017-09-12T11:32:22.154Z,998.72
2017-09-12T11:33:22.133Z,998.76
2017-09-12T11:34:22.114Z,998.81
2017-09-12T11:35:22.094Z,998.81
2017-09-12T11:36:22.075Z,998.8
2017-09-12T11:37:22.061Z,998.82
2017-09-12T11:38:22.034Z,998.82
2017-09-12T11:39:22.017Z,998.76
2017-09-12T11:40:21.996Z,998.84
2017-09-12T11:41:21.977Z,998.84
2017-09-12T11:42:21.960Z,998.83
2017-09-12T11:43:21.937Z,998.82
2017-09-12T11:44:21.915Z,998.8
2017-09-12T11:45:21.900Z,998.8
2017-09-12T11:46:21.877Z,998.91
2017-09-12T11:47:21.858Z,998.81
2017-09-12T11:48:21.839Z,998.89
2017-09-12T11:49:21.820Z,998.8
2017-09-12T11:50:21.804Z,998.71
2017-09-12T11:51:21.778Z,998.79
2017-09-12T11:52:21.760Z,998.9
2017-09-12T11:53:21.740Z,998.87
2017-09-12T11:54:21.724Z,998.83
2017-09-12T11:55:21.700Z,998.83
2017-09-12T11:56:21.685Z,998.89
2017-09-12T11:57:21.662Z,998.91
2017-09-12T11:58:21.646Z,998.91
2017-09-12T11:59:21.625Z,998.94
2017-09-12T12:00:21.604Z,998.94
2017-09-12T12:01:21.587Z,998.9
2017-09-12T12:02:21.565Z,998.92
2017-09-12T12:03:21.548Z,998.95
2017-09-12T12:04:21.528Z,998.93
2017-09-12T12:05:21.508Z,998.93
2017-09-12T12:06:21.490Z,998.98
2017-09-12T12:07:21.470Z,999.03
2017-09-12T12:08:21.452Z,998.99
2017-09-12T12:09:21.436Z,999.02
2017-09-12T12:10:21.416Z,999.02
2017-09-12T12:11:21.392Z,999.02
2017-09-12T12:12:21.374Z,999.07
2017-09-12T12:13:21.356Z,999.02
2017-09-12T12:14:21.339Z,999.1
2017-09-12T12:15:21.342Z,999.09
2017-09-12T12:16:21.378Z,999.18
2017-09-12T12:17:21.283Z,999.07
2017-09-12T12:18:21.254Z,999.11
2017-09-12T12:19:21.266Z,999.07
2017-09-12T12:20:21.218Z,999
2017-09-12T12:21:21.195Z,999.04
2017-09-12T12:22:21.178Z,998.99
2017-09-12T12:23:21.160Z,999.02
2017-09-12T12:24:21.139Z,999.07
2017-09-12T12:25:21.121Z,999.06
2017-09-12T12:26:21.105Z,999.07
2017-09-12T12:27:21.082Z,998.97
2017-09-12T12:28:21.061Z,999.1
2017-09-12T12:29:21.048Z,999.03
2017-09-12T12:30:21.028Z,999.07
2017-09-12T12:31:21.012Z,999.07
2017-09-12T12:32:20.984Z,999.09